Time;durP1;ratioP1;P1;durP2;ratioP2;P2;SDS_P1;SDS_P2;PMS_P1;PMS_P2;Temp;Humidity;BMP_temperature;BMP_pressure;BME280_temperature;BME280_humidity;BME280_pressure;Samples;Min_cycle;Max_cycle;Signal;HPM_P1;HPM_P2
2024/01/06 00:00:49;;;;;;;7.90;2.97;;;;;;;12.59;100.00;97344.03;6219955;23;20020;-93
2024/01/06 00:03:14;;;;;;;5.80;2.83;;;;;;;12.13;100.00;97272.91;6219901;23;20021;-92
2024/01/06 00:05:40;;;;;;;6.50;3.58;;;;;;;12.37;100.00;97290.25;6220812;23;20031;-93
2024/01/06 00:08:08;;;;;;;6.88;2.67;;;;;;;12.45;100.00;97309.34;6220564;23;20024;-94
2024/01/06 00:10:37;;;;;;;7.63;2.85;;;;;;;12.75;100.00;97338.66;6220483;23;20371;-95
2024/01/06 00:13:12;;;;;;;5.40;2.95;;;;;;;12.17;100.00;97251.44;6246442;22;20017;-92
2024/01/06 00:15:40;;;;;;;4.40;2.78;;;;;;;12.21;100.00;97258.28;6221451;23;20024;-92
2024/01/06 00:18:09;;;;;;;7.03;3.45;;;;;;;12.35;100.00;97268.16;6246686;22;20039;-93
2024/01/06 00:20:35;;;;;;;7.28;2.55;;;;;;;12.42;100.00;97277.50;6220685;23;20027;-95
2024/01/06 00:23:08;;;;;;;7.82;2.92;;;;;;;12.37;100.00;97261.78;6221117;23;20017;-93
2024/01/06 00:25:35;;;;;;;6.47;2.38;;;;;;;12.68;100.00;97318.66;6220963;23;20378;-93
2024/01/06 00:28:01;;;;;;;5.68;2.25;;;;;;;12.68;100.00;97307.97;6220642;23;20020;-94
2024/01/06 00:30:27;;;;;;;8.05;2.58;;;;;;;12.47;100.00;97275.41;6219587;23;20021;-92
2024/01/06 00:32:53;;;;;;;4.78;1.90;;;;;;;12.42;100.00;97256.19;6220169;23;20516;-94
2024/01/06 00:35:19;;;;;;;5.50;2.40;;;;;;;12.56;100.00;97277.56;6246655;22;20039;-94
2024/01/06 00:37:47;;;;;;;3.97;2.13;;;;;;;12.44;100.00;97251.63;6220939;23;20008;-93
2024/01/06 00:40:13;;;;;;;7.45;2.33;;;;;;;12.26;100.00;97211.78;6221422;23;20048;-93
2024/01/06 00:42:41;;;;;;;5.20;2.38;;;;;;;12.42;100.00;97218.88;6220717;23;20407;-93
2024/01/06 00:45:07;;;;;;;5.53;2.28;;;;;;;12.68;100.00;97262.63;6219982;23;20107;-93
2024/01/06 00:47:36;;;;;;;4.43;1.92;;;;;;;12.66;100.00;97260.06;6221594;23;20024;-92
2024/01/06 00:50:03;;;;;;;3.72;1.60;;;;;;;12.75;100.00;97290.66;6245567;23;20025;-93
2024/01/06 00:52:28;;;;;;;2.97;1.70;;;;;;;12.49;100.00;97231.75;6220960;23;20342;-93
2024/01/06 00:54:56;;;;;;;4.72;1.92;;;;;;;12.41;100.00;97210.00;6220316;23;20098;-93
2024/01/06 00:57:24;;;;;;;8.70;2.10;;;;;;;12.66;100.00;97243.19;6220808;23;20021;-93
2024/01/06 00:59:52;;;;;;;5.28;2.50;;;;;;;13.03;100.00;97276.50;6221243;23;20017;-94
2024/01/06 01:02:19;;;;;;;2.92;1.85;;;;;;;12.57;100.00;97193.94;6219808;23;20027;-95
2024/01/06 01:04:45;;;;;;;5.07;1.83;;;;;;;12.93;100.00;97251.38;6220433;23;20056;-95
2024/01/06 01:07:13;;;;;;;4.93;2.05;;;;;;;12.93;100.00;97246.03;6220194;23;20065;-93
2024/01/06 01:09:45;;;;;;;5.57;1.70;;;;;;;12.75;100.00;97210.63;6219552;23;20016;-93
2024/01/06 01:12:11;;;;;;;4.47;1.60;;;;;;;13.19;100.00;97273.78;6221471;23;20102;-94
2024/01/06 01:14:37;;;;;;;8.82;2.58;;;;;;;13.10;100.00;97269.88;6220831;23;20025;-93
2024/01/06 01:17:05;;;;;;;2.95;1.50;;;;;;;13.02;100.00;97244.59;6245814;23;20025;-94
2024/01/06 01:19:31;;;;;;;5.38;1.58;;;;;;;12.87;100.00;97222.38;6221223;23;20028;-95
2024/01/06 01:22:02;;;;;;;7.45;1.98;;;;;;;13.21;100.00;97276.38;6220847;23;20007;-93
2024/01/06 01:24:28;;;;;;;4.15;1.90;;;;;;;13.15;100.00;97273.09;6246382;23;20026;-92
2024/01/06 01:26:54;;;;;;;2.55;1.60;;;;;;;13.10;100.00;97280.53;6220501;23;20428;-92
2024/01/06 01:29:23;;;;;;;3.80;1.42;;;;;;;12.72;100.00;97194.81;6218901;23;20028;-93
2024/01/06 01:31:49;;;;;;;5.78;1.60;;;;;;;12.80;100.00;97208.56;6219957;23;20025;-94
2024/01/06 01:34:16;;;;;;;5.00;1.67;;;;;;;13.17;100.00;97270.34;6246072;23;20036;-93
2024/01/06 01:36:43;;;;;;;7.03;1.90;;;;;;;12.98;100.00;97241.25;6221512;23;20016;-96
2024/01/06 01:39:11;;;;;;;7.82;1.92;;;;;;;12.61;100.00;97183.97;6219970;23;20048;-95
2024/01/06 01:41:39;;;;;;;3.92;1.77;;;;;;;12.90;100.00;97225.72;6208665;22;20024;-95
2024/01/06 01:44:06;;;;;;;5.57;1.85;;;;;;;12.97;100.00;97217.31;6199889;23;20027;-96
2024/01/06 01:46:35;;;;;;;7.90;1.95;;;;;;;12.71;100.00;97180.66;6200169;23;20053;-95
2024/01/06 01:49:03;;;;;;;4.32;1.73;;;;;;;13.25;100.00;97246.72;6226172;23;20049;-94
2024/01/06 01:51:33;;;;;;;3.97;1.60;;;;;;;13.20;100.00;97223.91;6201039;23;20113;-95
2024/01/06 01:53:59;;;;;;;6.25;1.50;;;;;;;13.12;100.00;97217.25;6201856;23;20023;-96
2024/01/06 01:56:26;;;;;;;4.85;1.83;;;;;;;12.77;100.00;97150.06;6227673;23;20030;-93
2024/01/06 01:58:58;;;;;;;5.10;2.40;;;;;;;12.62;100.00;97133.22;6202555;23;20023;-94
2024/01/06 02:01:24;;;;;;;4.88;2.35;;;;;;;12.78;100.00;97164.28;6201771;23;20018;-93
2024/01/06 02:03:53;;;;;;;6.47;1.90;;;;;;;12.73;100.00;97143.22;6227307;22;20037;-94
2024/01/06 02:06:19;;;;;;;8.40;1.85;;;;;;;12.95;100.00;97180.94;6202043;23;20006;-94
2024/01/06 02:08:46;;;;;;;4.32;1.65;;;;;;;12.56;100.00;97117.59;6202520;23;20278;-95
2024/01/06 02:11:12;;;;;;;6.25;2.15;;;;;;;12.54;100.00;97101.66;6201457;23;20395;-95
2024/01/06 02:13:38;;;;;;;5.47;2.30;;;;;;;12.79;100.00;97121.47;6201958;23;20022;-93
2024/01/06 02:16:07;;;;;;;6.32;1.58;;;;;;;13.19;100.00;97175.03;6201968;23;20033;-95
2024/01/06 02:18:35;;;;;;;5.72;1.83;;;;;;;12.91;100.00;97151.88;6226839;22;20074;-94
2024/01/06 02:21:06;;;;;;;4.40;1.77;;;;;;;13.04;100.00;97165.31;6227389;23;20049;-94
2024/01/06 02:23:36;;;;;;;4.05;1.70;;;;;;;12.87;100.00;97148.53;6227614;23;20080;-95
2024/01/06 02:26:02;;;;;;;3.35;1.60;;;;;;;12.71;100.00;97102.44;6200656;23;20044;-94
2024/01/06 02:28:28;;;;;;;3.92;1.70;;;;;;;13.21;100.00;97185.63;6201337;23;20026;-95
2024/01/06 02:30:57;;;;;;;2.67;1.42;;;;;;;12.72;100.00;97113.00;6201575;23;20114;-96
2024/01/06 02:33:24;;;;;;;3.70;2.03;;;;;;;13.09;100.00;97176.53;6228085;23;20460;-95
2024/01/06 02:35:53;;;;;;;6.10;1.98;;;;;;;12.72;100.00;97113.00;6227938;23;20049;-93
2024/01/06 02:38:18;;;;;;;4.03;1.73;;;;;;;12.89;100.00;97153.78;6227554;23;20425;-94
2024/01/06 02:40:48;;;;;;;3.42;1.73;;;;;;;13.03;100.00;97151.09;6201891;23;20344;-94
2024/01/06 02:43:22;;;;;;;3.85;1.80;;;;;;;12.84;100.00;97127.41;6229739;23;20026;-93
2024/01/06 02:45:51;;;;;;;7.20;1.63;;;;;;;13.12;100.00;97160.34;6227117;23;20018;-96
2024/01/06 02:48:17;;;;;;;3.00;1.40;;;;;;;12.75;100.00;97101.28;6203438;23;20018;-95
2024/01/06 02:50:43;;;;;;;3.00;1.73;;;;;;;13.07;100.00;97143.75;6201230;23;20028;-93
2024/01/06 02:53:09;;;;;;;6.22;1.67;;;;;;;13.12;100.00;97155.03;6201726;23;20033;-94
2024/01/06 02:55:39;;;;;;;8.52;1.92;;;;;;;12.87;100.00;97103.19;6202287;23;20113;-95
2024/01/06 02:58:06;;;;;;;2.08;1.40;;;;;;;12.82;100.00;97093.78;6226843;23;20025;-93
2024/01/06 03:00:32;;;;;;;5.07;1.80;;;;;;;12.98;100.00;97110.50;6226028;23;20002;-95
2024/01/06 03:02:58;;;;;;;2.58;1.52;;;;;;;13.39;100.00;97156.91;6203094;23;20041;-93
2024/01/06 03:05:24;;;;;;;9.70;2.47;;;;;;;13.26;100.00;97160.31;6204642;23;20022;-94
2024/01/06 03:07:51;;;;;;;6.32;1.95;;;;;;;12.97;100.00;97091.91;6203420;23;20060;-94
2024/01/06 03:10:16;;;;;;;3.63;1.50;;;;;;;13.05;100.00;97110.97;6201594;23;20072;-96
2024/01/06 03:12:42;;;;;;;5.50;1.80;;;;;;;13.20;100.00;97125.16;6201276;23;20019;-94
2024/01/06 03:15:13;;;;;;;6.90;2.90;;;;;;;12.91;100.00;97087.84;6201659;23;20022;-94
2024/01/06 03:17:39;;;;;;;4.88;1.65;;;;;;;12.98;100.00;97097.16;6227313;23;20107;-94
2024/01/06 03:20:06;;;;;;;3.63;1.45;;;;;;;13.33;100.00;97152.81;6228060;22;20046;-93
2024/01/06 03:22:34;;;;;;;6.30;2.10;;;;;;;13.15;100.00;97109.44;6227651;22;20027;-94
2024/01/06 03:25:00;;;;;;;3.65;1.60;;;;;;;13.22;100.00;97121.44;6202202;23;20045;-95
2024/01/06 03:27:26;;;;;;;4.70;1.80;;;;;;;13.40;100.00;97138.09;6202276;23;20014;-94
2024/01/06 03:29:54;;;;;;;6.47;1.65;;;;;;;13.44;100.00;97150.31;6227059;23;20018;-94
2024/01/06 03:32:22;;;;;;;4.10;1.65;;;;;;;13.05;100.00;97078.97;6201252;23;20457;-94
2024/01/06 03:34:48;;;;;;;6.60;1.38;;;;;;;13.31;100.00;97123.53;6201409;23;20029;-95
2024/01/06 03:37:17;;;;;;;4.78;1.75;;;;;;;13.10;100.00;97103.56;6201815;23;20022;-94
2024/01/06 03:39:42;;;;;;;7.25;1.80;;;;;;;12.89;100.00;97053.25;6200811;23;20514;-95
2024/01/06 03:42:08;;;;;;;7.63;2.40;;;;;;;13.07;100.00;97091.25;6220822;23;20111;-93
2024/01/06 03:44:37;;;;;;;5.05;2.40;;;;;;;13.07;100.00;97080.56;6222615;23;20071;-95
2024/01/06 03:47:04;;;;;;;4.63;2.03;;;;;;;12.96;100.00;97061.72;6222900;23;20081;-94
2024/01/06 03:49:33;;;;;;;3.25;1.45;;;;;;;12.86;100.00;97033.91;6222119;23;20024;-93
2024/01/06 03:51:58;;;;;;;6.40;1.80;;;;;;;13.12;100.00;97088.31;6246976;23;20027;-94
2024/01/06 03:54:24;;;;;;;6.35;2.05;;;;;;;13.34;100.00;97111.81;6222286;23;20111;-94
2024/01/06 03:56:54;;;;;;;5.30;1.67;;;;;;;13.27;100.00;97079.31;6221154;23;20355;-95
2024/01/06 03:59:23;;;;;;;5.13;2.15;;;;;;;13.32;100.00;97092.38;6221491;23;20122;-94
2024/01/06 04:01:51;;;;;;;5.63;2.30;;;;;;;13.06;100.00;97062.84;6222472;23;20055;-95
2024/01/06 04:04:20;;;;;;;6.85;1.80;;;;;;;13.08;100.00;97046.75;6221772;23;20020;-95
2024/01/06 04:06:50;;;;;;;8.15;1.95;;;;;;;13.04;100.00;97039.91;6247304;22;20088;-95
2024/01/06 04:09:16;;;;;;;5.03;1.92;;;;;;;13.10;100.00;97056.38;6222554;23;20051;-93
2024/01/06 04:11:42;;;;;;;3.08;1.75;;;;;;;13.06;100.00;97048.66;6222592;23;20020;-95
2024/01/06 04:14:07;;;;;;;4.68;1.85;;;;;;;13.09;100.00;97048.44;6222179;23;20004;-94
2024/01/06 04:16:34;;;;;;;4.05;2.10;;;;;;;13.07;100.00;97051.22;6221759;23;20003;-94
2024/01/06 04:19:00;;;;;;;6.35;1.83;;;;;;;13.42;100.00;97097.97;6220750;23;20028;-93
2024/01/06 04:21:26;;;;;;;5.20;1.55;;;;;;;13.15;100.00;97078.25;6245935;23;20427;-93
2024/01/06 04:23:55;;;;;;;3.30;1.23;;;;;;;12.91;100.00;96999.81;6221829;23;20527;-94
2024/01/06 04:26:21;;;;;;;6.38;1.77;;;;;;;12.85;100.00;97002.88;6226600;23;20067;-94
2024/01/06 04:28:48;;;;;;;7.13;1.58;;;;;;;13.02;100.00;97056.00;6226565;23;20020;-94
2024/01/06 04:31:16;;;;;;;3.47;1.88;;;;;;;12.74;100.00;97014.22;6222272;23;20021;-94
2024/01/06 04:33:43;;;;;;;2.30;1.25;;;;;;;13.08;100.00;97068.09;6221409;23;20465;-94
2024/01/06 04:36:09;;;;;;;4.03;1.40;;;;;;;13.09;100.00;97059.97;6221140;23;20040;-93
2024/01/06 04:38:35;;;;;;;3.58;1.65;;;;;;;13.13;100.00;97074.00;6222224;23;20024;-93
2024/01/06 04:41:03;;;;;;;8.05;1.92;;;;;;;12.97;100.00;97049.22;6222306;23;20027;-95
2024/01/06 04:43:29;;;;;;;3.60;1.73;;;;;;;12.67;100.00;97008.44;6221188;23;20020;-94
2024/01/06 04:45:57;;;;;;;7.40;1.85;;;;;;;12.90;100.00;97024.75;6221852;23;20084;-94
2024/01/06 04:48:23;;;;;;;5.88;2.20;;;;;;;13.03;100.00;97038.16;6220350;23;20337;-93
2024/01/06 04:50:51;;;;;;;7.00;2.03;;;;;;;13.01;100.00;97053.41;6220613;23;20012;-94
2024/01/06 04:53:22;;;;;;;3.90;1.95;;;;;;;12.64;100.00;96991.75;6221059;23;20450;-94
2024/01/06 04:55:47;;;;;;;7.38;1.83;;;;;;;13.04;100.00;97053.25;6219237;23;20020;-94
2024/01/06 04:58:15;;;;;;;6.63;1.77;;;;;;;12.85;100.00;97003.72;6220567;23;20032;-93
2024/01/06 05:00:40;;;;;;;4.43;1.67;;;;;;;13.09;100.00;97051.97;6220725;23;20103;-94
2024/01/06 05:03:07;;;;;;;6.57;2.30;;;;;;;12.69;100.00;96981.69;6220470;23;20020;-93
2024/01/06 05:05:35;;;;;;;4.80;1.80;;;;;;;12.71;100.00;96977.09;6219657;23;20012;-93
2024/01/06 05:08:01;;;;;;;4.18;1.95;;;;;;;12.79;100.00;97003.25;6220659;23;20088;-93
2024/01/06 05:10:27;;;;;;;2.58;1.48;;;;;;;12.79;100.00;96993.44;6221073;23;20021;-93
2024/01/06 05:12:53;;;;;;;5.07;1.45;;;;;;;12.60;100.00;96976.91;6220196;23;20039;-92
2024/01/06 05:15:21;;;;;;;4.18;1.50;;;;;;;13.05;100.00;97046.94;6220534;23;20024;-93
2024/01/06 05:17:47;;;;;;;12.40;2.70;;;;;;;12.56;100.00;96981.59;6221119;23;20025;-94
2024/01/06 05:20:16;;;;;;;3.30;1.85;;;;;;;12.57;100.00;96985.97;6220882;23;20040;-94
2024/01/06 05:22:42;;;;;;;6.25;2.40;;;;;;;12.77;100.00;97008.69;6220154;23;20051;-93
2024/01/06 05:25:09;;;;;;;9.02;3.10;;;;;;;13.12;100.00;97064.28;6221727;23;20017;-94
2024/01/06 05:27:35;;;;;;;5.93;2.25;;;;;;;13.09;100.00;97045.78;6245122;23;20012;-94
2024/01/06 05:30:02;;;;;;;7.38;2.70;;;;;;;12.87;100.00;97016.97;6219952;23;20016;-94
2024/01/06 05:32:30;;;;;;;7.28;3.28;;;;;;;12.66;100.00;96966.69;6245197;23;20012;-93
2024/01/06 05:34:55;;;;;;;5.80;2.65;;;;;;;12.82;100.00;96995.94;6245364;22;20514;-95
2024/01/06 05:37:22;;;;;;;6.45;3.00;;;;;;;13.20;100.00;97021.06;6221064;23;20027;-94
2024/01/06 05:39:48;;;;;;;6.63;1.83;;;;;;;13.37;100.00;97062.72;6221771;23;20021;-93
2024/01/06 05:42:15;;;;;;;6.75;1.83;;;;;;;13.37;100.00;97062.72;6222139;23;20028;-94
2024/01/06 05:44:41;;;;;;;6.43;2.17;;;;;;;13.41;100.00;97064.22;6221195;23;20057;-93
2024/01/06 05:47:10;;;;;;;8.40;1.80;;;;;;;13.21;100.00;97031.66;6218927;23;20031;-95
2024/01/06 05:49:44;;;;;;;6.47;2.28;;;;;;;13.01;100.00;96997.38;6220602;23;20083;-94
2024/01/06 05:52:10;;;;;;;3.90;2.10;;;;;;;13.34;100.00;97053.94;6246642;22;20016;-93
2024/01/06 05:54:41;;;;;;;3.88;1.85;;;;;;;13.02;100.00;96991.97;6220546;23;20016;-96
2024/01/06 05:57:09;;;;;;;8.48;2.90;;;;;;;12.81;100.00;96970.19;6220838;23;20397;-94
2024/01/06 05:59:37;;;;;;;3.45;2.17;;;;;;;13.07;100.00;97018.34;6221040;23;20021;-95
2024/01/06 06:02:04;;;;;;;4.78;1.88;;;;;;;13.24;100.00;97036.78;6219813;23;20020;-93
2024/01/06 06:04:29;;;;;;;5.95;1.95;;;;;;;12.99;100.00;96992.19;6219669;23;20016;-94
2024/01/06 06:06:57;;;;;;;6.68;2.05;;;;;;;12.57;100.00;96955.78;6220779;23;20035;-94
2024/01/06 06:09:22;;;;;;;7.22;2.28;;;;;;;12.56;100.00;96959.41;6220331;23;20021;-93
2024/01/06 06:11:51;;;;;;;7.72;1.77;;;;;;;13.08;100.00;97055.59;6220421;23;20058;-94
2024/01/06 06:14:17;;;;;;;3.92;1.92;;;;;;;13.00;100.00;97041.06;6219968;23;20423;-94
2024/01/06 06:16:43;;;;;;;5.80;1.70;;;;;;;12.59;100.00;96972.53;6220818;23;20021;-93
2024/01/06 06:19:12;;;;;;;4.82;1.80;;;;;;;12.61;100.00;96970.63;6220574;23;20023;-94
2024/01/06 06:21:38;;;;;;;3.72;2.13;;;;;;;12.77;100.00;97003.34;6220508;23;20504;-94
2024/01/06 06:24:06;;;;;;;3.40;1.65;;;;;;;12.75;100.00;96999.94;6220414;23;20016;-94
2024/01/06 06:26:32;;;;;;;10.82;2.13;;;;;;;12.99;100.00;97031.31;6220059;23;20072;-94
2024/01/06 06:29:00;;;;;;;6.97;1.83;;;;;;;12.65;100.00;96972.16;6220843;23;20107;-94
2024/01/06 06:31:26;;;;;;;5.68;2.08;;;;;;;12.69;100.00;96977.19;6224281;23;20479;-94
2024/01/06 06:33:52;;;;;;;5.82;2.80;;;;;;;12.90;100.00;97016.75;6226454;23;20027;-95
2024/01/06 06:36:22;;;;;;;6.88;3.00;;;;;;;12.93;100.00;97021.91;6225431;23;20013;-95
2024/01/06 06:38:48;;;;;;;5.07;2.30;;;;;;;12.97;100.00;97033.22;6225549;23;20024;-94
2024/01/06 06:41:16;;;;;;;9.07;2.58;;;;;;;12.78;100.00;97002.41;6223890;23;20079;-95
2024/01/06 06:43:42;;;;;;;6.80;2.88;;;;;;;12.53;100.00;96965.78;6222932;23;20063;-93
2024/01/06 06:46:08;;;;;;;6.68;1.70;;;;;;;13.01;100.00;97035.63;6224733;23;20013;-94
2024/01/06 06:48:36;;;;;;;8.70;2.10;;;;;;;12.77;100.00;96991.84;6222520;23;20021;-92
2024/01/06 06:51:03;;;;;;;9.25;1.85;;;;;;;13.03;100.00;97031.00;6220967;23;20020;-92
2024/01/06 06:53:32;;;;;;;5.32;2.10;;;;;;;12.93;100.00;97027.25;6223437;23;20343;-95
2024/01/06 06:55:58;;;;;;;5.50;1.55;;;;;;;12.79;100.00;97012.13;6225236;23;20016;-95
2024/01/06 06:58:25;;;;;;;6.68;1.48;;;;;;;12.68;100.00;96974.63;6227673;23;20025;-94
2024/01/06 07:00:54;;;;;;;5.90;1.75;;;;;;;13.05;100.00;97046.94;6223699;23;20020;-94
2024/01/06 07:03:22;;;;;;;6.50;1.70;;;;;;;12.59;100.00;96968.06;6224633;23;20024;-96
2024/01/06 07:05:48;;;;;;;7.68;2.30;;;;;;;12.77;100.00;97000.69;6225431;23;20012;-94
2024/01/06 07:08:15;;;;;;;4.78;1.67;;;;;;;12.84;100.00;97047.38;6224525;23;20012;-94
2024/01/06 07:10:41;;;;;;;7.82;2.10;;;;;;;12.60;100.00;97006.25;6226150;23;20074;-94
2024/01/06 07:13:09;;;;;;;3.20;1.75;;;;;;;12.85;100.00;97053.56;6225342;23;20017;-94
2024/01/06 07:15:37;;;;;;;7.25;2.35;;;;;;;12.40;100.00;96980.84;6249149;22;20052;-95
2024/01/06 07:18:04;;;;;;;6.05;1.90;;;;;;;12.64;100.00;97027.31;6223577;23;20040;-94
2024/01/06 07:20:31;;;;;;;4.07;2.05;;;;;;;12.37;100.00;96979.25;6223737;23;20048;-94
2024/01/06 07:22:59;;;;;;;3.67;2.13;;;;;;;12.49;100.00;97009.59;6224649;23;20046;-96
2024/01/06 07:25:27;;;;;;;5.57;2.22;;;;;;;12.85;100.00;97080.22;6223826;23;20099;-94
2024/01/06 07:27:53;;;;;;;4.50;1.92;;;;;;;12.51;100.00;97013.88;6221243;23;20020;-93
2024/01/06 07:30:22;;;;;;;4.50;1.60;;;;;;;12.69;100.00;97059.00;6222499;23;20039;-95
2024/01/06 07:32:51;;;;;;;4.00;1.52;;;;;;;12.32;100.00;97005.34;6224360;23;20013;-93
2024/01/06 07:35:18;;;;;;;5.70;1.38;;;;;;;12.50;100.00;97052.16;6223916;23;20446;-94
2024/01/06 07:37:46;;;;;;;4.53;1.75;;;;;;;12.09;100.00;97004.09;6222215;23;20360;-93
2024/01/06 07:40:16;;;;;;;4.65;1.52;;;;;;;11.95;100.00;96998.72;6222117;23;20411;-95
2024/01/06 07:42:44;;;;;;;4.68;1.45;;;;;;;12.08;100.00;97013.03;6229729;23;20031;-94
2024/01/06 07:45:11;;;;;;;4.70;1.75;;;;;;;12.28;100.00;97041.13;6250396;23;20020;-95
2024/01/06 07:47:37;;;;;;;5.50;1.33;;;;;;;12.32;100.00;97077.28;6226041;23;20071;-95
2024/01/06 07:50:06;;;;;;;2.88;1.38;;;;;;;12.49;100.00;97071.78;6250027;23;20103;-95
2024/01/06 07:52:32;;;;;;;4.07;1.63;;;;;;;11.97;100.00;97021.69;6248827;22;20027;-95
2024/01/06 07:54:58;;;;;;;5.28;1.33;;;;;;;11.92;100.00;97026.41;6247804;23;20431;-94
2024/01/06 07:57:27;;;;;;;4.57;1.60;;;;;;;11.98;100.00;97020.72;6220006;23;20455;-95
2024/01/06 07:59:53;;;;;;;4.75;1.60;;;;;;;12.40;100.00;97117.66;6221771;23;19997;-95
2024/01/06 08:02:19;;;;;;;1.90;1.08;;;;;;;12.07;100.00;97086.75;6248500;23;20031;-95
2024/01/06 08:04:45;;;;;;;2.33;0.88;;;;;;;12.05;100.00;97082.47;6248042;23;20024;-94
2024/01/06 08:07:13;;;;;;;1.80;0.82;;;;;;;11.44;100.00;97017.72;6223268;23;20013;-94
2024/01/06 08:09:43;;;;;;;2.42;1.20;;;;;;;11.79;100.00;97060.88;6224001;23;20024;-95
2024/01/06 08:12:09;;;;;;;2.05;1.17;;;;;;;11.68;100.00;97053.53;6247121;23;20017;-93
2024/01/06 08:14:38;;;;;;;5.25;1.02;;;;;;;11.92;100.00;97087.69;6222110;23;20044;-96
2024/01/06 08:17:04;;;;;;;4.47;2.17;;;;;;;11.83;100.00;97048.25;6219906;23;20020;-94
2024/01/06 08:19:32;;;;;;;4.05;1.50;;;;;;;12.10;100.00;97086.59;6220347;23;20046;-95
2024/01/06 08:22:00;;;;;;;3.40;1.58;;;;;;;11.93;100.00;97062.78;6245886;23;20493;-96
2024/01/06 08:24:27;;;;;;;2.50;1.55;;;;;;;12.05;100.00;97093.97;6219916;23;20351;-94
2024/01/06 08:26:53;;;;;;;6.32;1.90;;;;;;;11.91;100.00;97054.00;6221844;23;20027;-94
2024/01/06 08:29:19;;;;;;;4.68;2.58;;;;;;;11.75;100.00;97023.88;6229846;23;20021;-95
2024/01/06 08:31:45;;;;;;;5.18;1.25;;;;;;;11.65;100.00;97013.78;6220058;23;20028;-95
2024/01/06 08:34:12;;;;;;;4.28;2.10;;;;;;;11.89;100.00;97050.59;6219965;23;20023;-95
2024/01/06 08:36:38;;;;;;;3.17;1.33;;;;;;;11.67;100.00;97024.34;6220408;23;20020;-92
2024/01/06 08:39:08;;;;;;;1.98;1.10;;;;;;;11.66;100.00;97020.81;6218715;23;20430;-95
2024/01/06 08:41:38;;;;;;;;;;;;;;;12.12;100.00;97110.47;6210362;23;20055;-96
2024/01/06 08:44:04;;;;;;;2.38;1.35;;;;;;;12.21;100.00;97109.03;6197847;23;19917;-95
2024/01/06 08:46:30;;;;;;;2.08;1.00;;;;;;;12.09;100.00;97092.00;6222831;23;20032;-95
2024/01/06 08:49:00;;;;;;;2.97;1.15;;;;;;;11.86;100.00;97056.91;6223762;22;20019;-94
2024/01/06 08:51:27;;;;;;;4.10;1.83;;;;;;;12.16;100.00;97097.81;6221966;23;20037;-95
2024/01/06 08:53:56;;;;;;;2.65;1.20;;;;;;;11.72;100.00;97036.41;6197686;23;20034;-95
2024/01/06 08:56:22;;;;;;;2.30;1.35;;;;;;;11.74;100.00;97054.97;6198256;23;20034;-91
2024/01/06 08:58:52;;;;;;;2.50;1.17;;;;;;;12.10;100.00;97097.25;6223348;22;20082;-92
2024/01/06 09:01:17;;;;;;;4.20;1.58;;;;;;;12.06;100.00;97079.72;6220320;22;20050;-94
2024/01/06 09:03:43;;;;;;;3.22;1.52;;;;;;;11.58;100.00;97030.19;6196229;23;20357;-93
2024/01/06 09:06:09;;;;;;;2.53;1.00;;;;;;;11.68;100.00;97040.22;6196350;23;20023;-94
2024/01/06 09:08:35;;;;;;;5.38;1.27;;;;;;;11.77;100.00;97061.91;6221367;22;20022;-94
2024/01/06 09:11:01;;;;;;;4.18;1.55;;;;;;;11.89;100.00;97078.06;6196853;23;20029;-93
2024/01/06 09:13:26;;;;;;;4.93;2.78;;;;;;;11.91;100.00;97068.19;6198412;23;20068;-94
2024/01/06 09:15:58;;;;;;;5.45;3.20;;;;;;;12.15;100.00;97102.31;6195162;23;20006;-93
2024/01/06 09:21:46;;;;;;;7.43;2.97;;;;;;;12.16;100.00;97093.34;6226750;22;20068;-94
2024/01/06 09:24:12;;;;;;;6.15;2.20;;;;;;;12.05;100.00;97062.00;6224378;23;20022;-93
2024/01/06 09:26:38;;;;;;;2.80;1.52;;;;;;;12.26;100.00;97105.16;6222474;23;20719;-94
2024/01/06 09:29:04;;;;;;;3.65;2.38;;;;;;;11.91;100.00;97048.69;6222548;23;20002;-93
2024/01/06 09:31:32;;;;;;;3.95;2.28;;;;;;;12.10;100.00;97078.59;6221394;22;20037;-95
2024/01/06 09:34:01;;;;;;;4.05;2.38;;;;;;;12.18;100.00;97082.59;6223645;22;20077;-93
2024/01/06 09:36:29;;;;;;;3.85;1.70;;;;;;;12.18;100.00;97083.44;6222083;22;20027;-93
2024/01/06 09:38:55;;;;;;;4.80;2.30;;;;;;;12.17;100.00;97094.22;6198093;23;20022;-90
2024/01/06 09:41:21;;;;;;;3.33;1.77;;;;;;;11.95;100.00;97026.25;6195617;23;20019;-93
2024/01/06 09:43:47;;;;;;;2.25;1.50;;;;;;;12.31;100.00;97080.91;6220456;23;20079;-92
2024/01/06 09:46:21;;;;;;;2.30;1.65;;;;;;;11.88;100.00;97007.13;6218040;22;20109;-94
2024/01/06 09:48:52;;;;;;;2.13;1.00;;;;;;;12.07;100.00;97064.59;6193294;23;20026;-92
2024/01/06 09:51:19;;;;;;;2.67;1.00;;;;;;;11.55;100.00;97041.88;6192765;23;20076;-92
2024/01/06 09:53:55;;;;;;;2.15;0.88;;;;;;;11.85;100.00;97049.00;6193189;23;20014;-92
2024/01/06 09:56:21;;;;;;;1.48;0.85;;;;;;;12.06;100.00;97061.06;6219566;22;20022;-94
2024/01/06 09:58:55;;;;;;;1.65;0.73;;;;;;;12.00;100.00;97037.47;6194002;23;20392;-93
2024/01/06 10:01:22;;;;;;;2.78;0.70;;;;;;;12.24;100.00;97056.44;6191146;23;20022;-95
2024/01/06 10:03:52;;;;;;;1.33;0.63;;;;;;;12.31;100.00;97044.44;6194148;23;20026;-93
2024/01/06 10:06:20;;;;;;;1.85;0.80;;;;;;;12.58;100.00;97064.13;6195717;23;20019;-92
2024/01/06 10:08:49;;;;;;;2.17;0.82;;;;;;;12.16;100.00;96994.75;6197348;23;20124;-93
2024/01/06 10:11:18;;;;;;;1.88;0.70;;;;;;;12.16;100.00;96977.91;6220868;22;20502;-93
2024/01/06 10:13:44;;;;;;;0.70;0.60;;;;;;;12.07;100.00;96993.50;6220473;23;20026;-92
2024/01/06 10:16:13;;;;;;;2.33;0.80;;;;;;;12.45;100.00;97030.25;6218972;22;20070;-94
2024/01/06 10:18:39;;;;;;;2.63;1.52;;;;;;;12.28;100.00;96978.00;6195847;23;20054;-93
2024/01/06 10:21:06;;;;;;;5.35;1.40;;;;;;;12.71;100.00;97020.63;6219626;23;20100;-93
2024/01/06 10:23:36;;;;;;;1.73;1.20;;;;;;;12.56;100.00;96976.28;6194681;23;20022;-92
2024/01/06 10:26:04;;;;;;;2.53;1.38;;;;;;;12.68;100.00;96996.78;6195706;23;20022;-93
2024/01/06 10:28:30;;;;;;;2.97;1.70;;;;;;;12.52;100.00;96969.41;6195220;23;20023;-92
2024/01/06 10:30:57;;;;;;;5.45;2.30;;;;;;;12.88;100.00;97019.53;6217182;23;20018;-93
2024/01/06 10:33:24;;;;;;;6.90;2.75;;;;;;;12.63;100.00;96958.06;6195933;23;20026;-92
2024/01/06 10:35:50;;;;;;;5.50;3.15;;;;;;;12.94;100.00;96997.78;6194894;23;20108;-92
2024/01/06 10:38:20;;;;;;;5.43;3.05;;;;;;;12.55;100.00;96913.22;6224460;23;20023;-93
2024/01/06 10:40:57;;;;;;;19.98;9.60;;;;;;;13.02;100.00;96967.09;6224606;23;20018;-93
2024/01/06 10:43:25;;;;;;;12.00;6.18;;;;;;;13.34;100.00;97011.22;6199055;23;20033;-92
2024/01/06 10:45:55;;;;;;;5.43;2.47;;;;;;;13.19;100.00;96968.66;6198827;23;20026;-92
2024/01/06 10:48:24;;;;;;;3.08;1.70;;;;;;;12.97;100.00;96948.72;6223833;23;20019;-94
2024/01/06 10:50:51;;;;;;;5.40;1.30;;;;;;;13.05;100.00;96990.91;6198309;23;20027;-93
2024/01/06 10:53:20;;;;;;;2.33;1.55;;;;;;;12.83;100.00;96975.44;6197813;23;20029;-94
2024/01/06 10:55:49;;;;;;;2.15;0.98;;;;;;;12.52;100.00;96972.94;6198844;23;20014;-94
2024/01/06 10:58:20;;;;;;;2.95;1.15;;;;;;;12.25;100.00;96916.91;6224414;23;20042;-96
2024/01/06 11:00:48;;;;;;;3.13;1.55;;;;;;;12.35;100.00;96961.63;6198479;23;20105;-95
2024/01/06 11:03:15;;;;;;;3.08;1.30;;;;;;;12.53;100.00;96940.00;6200562;23;20022;-95
2024/01/06 11:05:45;;;;;;;2.53;1.02;;;;;;;12.93;100.00;96969.41;6225259;23;20022;-94
2024/01/06 11:08:11;;;;;;;1.85;0.65;;;;;;;12.63;100.00;96905.56;6225479;23;20023;-96
2024/01/06 11:10:40;;;;;;;1.98;1.10;;;;;;;12.47;100.00;96918.19;6224200;23;20054;-94
2024/01/06 11:13:09;;;;;;;2.63;0.70;;;;;;;12.80;100.00;96941.81;6224992;22;20117;-94
2024/01/06 11:15:43;;;;;;;3.08;2.08;;;;;;;12.93;100.00;96950.72;6225148;23;20018;-96
2024/01/06 11:18:09;;;;;;;3.55;1.35;;;;;;;12.94;100.00;96952.44;6225329;23;20015;-94
2024/01/06 11:20:37;;;;;;;3.25;1.63;;;;;;;12.77;100.00;96927.81;6199000;23;20445;-95
2024/01/06 11:23:20;;;;;;;2.28;1.30;;;;;;;12.67;100.00;96892.91;6223499;23;20023;-93
2024/01/06 11:25:47;;;;;;;5.32;1.88;;;;;;;12.57;100.00;96873.13;6224557;22;20057;-95
2024/01/06 11:28:16;;;;;;;3.30;1.83;;;;;;;12.91;100.00;96912.63;6226086;22;20022;-94